sensor_id;sensor_type;location;lat;lon;timestamp;temperature;humidity
49821;DHT22;36893;52.520;13.450;2023-06-10T00:09:13;25.80;57.80
49821;DHT22;36893;52.520;13.450;2023-06-10T00:19:14;25.80;58.10
49821;DHT22;36893;52.520;13.450;2023-06-10T00:29:15;25.70;58.10
49821;DHT22;36893;52.520;13.450;2023-06-10T00:39:16;25.60;58.20
49821;DHT22;36893;52.520;13.450;2023-06-10T00:49:17;25.50;58.40
49821;DHT22;36893;52.520;13.450;2023-06-10T00:59:18;25.50;58.60
49821;DHT22;36893;52.520;13.450;2023-06-10T01:19:36;25.40;58.80
49821;DHT22;36893;52.520;13.450;2023-06-10T01:29:39;25.30;58.90
49821;DHT22;36893;52.520;13.450;2023-06-10T01:39:42;25.30;59.00
49821;DHT22;36893;52.520;13.450;2023-06-10T01:49:43;25.10;59.00
49821;DHT22;36893;52.520;13.450;2023-06-10T01:59:44;25.10;59.20
49821;DHT22;36893;52.520;13.450;2023-06-10T02:09:46;25.10;59.20
49821;DHT22;36893;52.520;13.450;2023-06-10T02:19:47;25.10;59.30
49821;DHT22;36893;52.520;13.450;2023-06-10T02:29:53;24.90;59.50
49821;DHT22;36893;52.520;13.450;2023-06-10T02:39:53;24.90;59.60
49821;DHT22;36893;52.520;13.450;2023-06-10T02:49:54;24.90;59.70
49821;DHT22;36893;52.520;13.450;2023-06-10T02:59:55;24.80;59.80
49821;DHT22;36893;52.520;13.450;2023-06-10T03:09:55;24.80;59.90
49821;DHT22;36893;52.520;13.450;2023-06-10T03:19:56;24.70;60.80
49821;DHT22;36893;52.520;13.450;2023-06-10T03:29:57;24.60;60.00
49821;DHT22;36893;52.520;13.450;2023-06-10T03:39:57;24.60;60.20
49821;DHT22;36893;52.520;13.450;2023-06-10T03:49:58;24.60;60.30
49821;DHT22;36893;52.520;13.450;2023-06-10T03:59:59;24.50;60.40
49821;DHT22;36893;52.520;13.450;2023-06-10T04:09:59;24.50;60.50
49821;DHT22;36893;52.520;13.450;2023-06-10T04:20:00;24.50;60.70
49821;DHT22;36893;52.520;13.450;2023-06-10T04:30:02;24.40;60.70
49821;DHT22;36893;52.520;13.450;2023-06-10T04:40:05;24.40;60.80
49821;DHT22;36893;52.520;13.450;2023-06-10T04:50:08;24.40;60.80
49821;DHT22;36893;52.520;13.450;2023-06-10T05:00:09;24.40;61.80
49821;DHT22;36893;52.520;13.450;2023-06-10T05:10:10;24.40;61.10
49821;DHT22;36893;52.520;13.450;2023-06-10T05:20:12;24.40;61.20
49821;DHT22;36893;52.520;13.450;2023-06-10T05:30:14;24.40;61.30
49821;DHT22;36893;52.520;13.450;2023-06-10T05:40:14;24.50;61.60
49821;DHT22;36893;52.520;13.450;2023-06-10T05:50:15;24.50;61.60
49821;DHT22;36893;52.520;13.450;2023-06-10T06:00:16;24.60;61.60
49821;DHT22;36893;52.520;13.450;2023-06-10T06:10:18;24.70;61.70
49821;DHT22;36893;52.520;13.450;2023-06-10T06:20:19;24.80;61.80
49821;DHT22;36893;52.520;13.450;2023-06-10T06:30:20;24.90;61.90
49821;DHT22;36893;52.520;13.450;2023-06-10T06:40:21;25.00;61.90
49821;DHT22;36893;52.520;13.450;2023-06-10T06:50:21;25.10;61.90
49821;DHT22;36893;52.520;13.450;2023-06-10T07:00:22;25.20;62.00
49821;DHT22;36893;52.520;13.450;2023-06-10T07:10:24;25.30;62.10
49821;DHT22;36893;52.520;13.450;2023-06-10T07:20:25;25.30;62.10
49821;DHT22;36893;52.520;13.450;2023-06-10T07:30:26;25.30;62.10
49821;DHT22;36893;52.520;13.450;2023-06-10T07:40:26;25.40;62.10
49821;DHT22;36893;52.520;13.450;2023-06-10T07:50:27;25.60;62.00
49821;DHT22;36893;52.520;13.450;2023-06-10T08:00:29;25.70;61.60
49821;DHT22;36893;52.520;13.450;2023-06-10T08:10:29;25.80;61.50
49821;DHT22;36893;52.520;13.450;2023-06-10T08:20:30;25.90;61.40
49821;DHT22;36893;52.520;13.450;2023-06-10T08:30:31;26.00;61.30
49821;DHT22;36893;52.520;13.450;2023-06-10T08:40:33;26.10;61.10
49821;DHT22;36893;52.520;13.450;2023-06-10T08:50:37;26.20;61.10
49821;DHT22;36893;52.520;13.450;2023-06-10T09:00:38;26.20;61.00
49821;DHT22;36893;52.520;13.450;2023-06-10T09:10:38;26.30;60.90
49821;DHT22;36893;52.520;13.450;2023-06-10T09:20:42;26.30;60.90
49821;DHT22;36893;52.520;13.450;2023-06-10T09:30:43;26.30;60.90
49821;DHT22;36893;52.520;13.450;2023-06-10T09:40:53;26.40;60.80
49821;DHT22;36893;52.520;13.450;2023-06-10T09:50:54;26.40;60.80
49821;DHT22;36893;52.520;13.450;2023-06-10T10:00:55;26.50;60.70
49821;DHT22;36893;52.520;13.450;2023-06-10T10:10:56;26.50;60.60
49821;DHT22;36893;52.520;13.450;2023-06-10T10:21:01;26.50;60.50
49821;DHT22;36893;52.520;13.450;2023-06-10T10:31:09;26.60;60.60
49821;DHT22;36893;52.520;13.450;2023-06-10T10:41:11;26.60;60.50
49821;DHT22;36893;52.520;13.450;2023-06-10T10:51:15;26.60;60.30
49821;DHT22;36893;52.520;13.450;2023-06-10T11:01:16;26.70;60.40
49821;DHT22;36893;52.520;13.450;2023-06-10T11:11:24;26.70;60.20
49821;DHT22;36893;52.520;13.450;2023-06-10T11:21:28;26.70;60.20
49821;DHT22;36893;52.520;13.450;2023-06-10T11:41:32;26.80;60.10
49821;DHT22;36893;52.520;13.450;2023-06-10T11:51:38;26.80;60.10
49821;DHT22;36893;52.520;13.450;2023-06-10T12:01:45;26.90;60.10
49821;DHT22;36893;52.520;13.450;2023-06-10T12:11:58;26.90;60.00
49821;DHT22;36893;52.520;13.450;2023-06-10T12:22:09;26.90;60.00
49821;DHT22;36893;52.520;13.450;2023-06-10T12:32:09;26.90;60.00
49821;DHT22;36893;52.520;13.450;2023-06-10T12:42:12;27.00;59.90
49821;DHT22;36893;52.520;13.450;2023-06-10T12:52:13;27.00;59.90
49821;DHT22;36893;52.520;13.450;2023-06-10T13:02:13;27.00;59.90
49821;DHT22;36893;52.520;13.450;2023-06-10T13:12:14;27.10;59.90
49821;DHT22;36893;52.520;13.450;2023-06-10T13:22:15;27.10;59.80
49821;DHT22;36893;52.520;13.450;2023-06-10T13:32:16;27.10;59.80
49821;DHT22;36893;52.520;13.450;2023-06-10T13:42:18;27.10;59.70
49821;DHT22;36893;52.520;13.450;2023-06-10T13:52:18;27.20;59.80
49821;DHT22;36893;52.520;13.450;2023-06-10T14:02:19;27.20;59.70
49821;DHT22;36893;52.520;13.450;2023-06-10T14:12:20;27.20;59.70
49821;DHT22;36893;52.520;13.450;2023-06-10T14:22:20;27.20;59.70
49821;DHT22;36893;52.520;13.450;2023-06-10T14:32:21;27.20;59.60
49821;DHT22;36893;52.520;13.450;2023-06-10T14:42:22;27.30;59.60
49821;DHT22;36893;52.520;13.450;2023-06-10T14:52:23;27.30;59.60
49821;DHT22;36893;52.520;13.450;2023-06-10T15:02:23;27.30;59.60
49821;DHT22;36893;52.520;13.450;2023-06-10T15:12:24;27.30;59.50
49821;DHT22;36893;52.520;13.450;2023-06-10T15:22:25;27.30;59.50
49821;DHT22;36893;52.520;13.450;2023-06-10T15:32:26;27.40;59.50
49821;DHT22;36893;52.520;13.450;2023-06-10T15:42:26;27.40;59.50
49821;DHT22;36893;52.520;13.450;2023-06-10T15:52:27;27.40;59.50
49821;DHT22;36893;52.520;13.450;2023-06-10T16:02:28;27.40;59.40
49821;DHT22;36893;52.520;13.450;2023-06-10T16:12:29;27.40;59.40
49821;DHT22;36893;52.520;13.450;2023-06-10T16:22:29;27.50;59.40
49821;DHT22;36893;52.520;13.450;2023-06-10T16:32:30;27.50;59.30
49821;DHT22;36893;52.520;13.450;2023-06-10T16:42:30;27.50;59.30
49821;DHT22;36893;52.520;13.450;2023-06-10T16:52:31;27.50;59.30
49821;DHT22;36893;52.520;13.450;2023-06-10T17:02:32;27.50;59.20
49821;DHT22;36893;52.520;13.450;2023-06-10T17:12:33;27.50;59.20
49821;DHT22;36893;52.520;13.450;2023-06-10T17:22:33;27.50;59.10
49821;DHT22;36893;52.520;13.450;2023-06-10T17:32:34;27.60;59.20
49821;DHT22;36893;52.520;13.450;2023-06-10T17:42:37;27.60;59.10
49821;DHT22;36893;52.520;13.450;2023-06-10T17:52:37;27.60;59.10
49821;DHT22;36893;52.520;13.450;2023-06-10T18:02:38;27.60;59.00
49821;DHT22;36893;52.520;13.450;2023-06-10T18:12:39;27.60;59.00
49821;DHT22;36893;52.520;13.450;2023-06-10T18:22:39;27.60;58.90
49821;DHT22;36893;52.520;13.450;2023-06-10T18:32:40;27.60;58.90
49821;DHT22;36893;52.520;13.450;2023-06-10T18:42:41;27.70;58.90
49821;DHT22;36893;52.520;13.450;2023-06-10T18:52:41;27.70;59.50
49821;DHT22;36893;52.520;13.450;2023-06-10T19:02:42;27.70;58.80
49821;DHT22;36893;52.520;13.450;2023-06-10T19:12:42;27.70;58.70
49821;DHT22;36893;52.520;13.450;2023-06-10T19:22:43;27.70;58.70
49821;DHT22;36893;52.520;13.450;2023-06-10T19:32:44;27.70;58.70
49821;DHT22;36893;52.520;13.450;2023-06-10T19:42:46;27.70;58.70
49821;DHT22;36893;52.520;13.450;2023-06-10T19:52:46;27.70;58.70
49821;DHT22;36893;52.520;13.450;2023-06-10T20:02:47;27.80;58.70
49821;DHT22;36893;52.520;13.450;2023-06-10T20:12:48;27.70;58.60
49821;DHT22;36893;52.520;13.450;2023-06-10T20:22:49;27.70;58.60
49821;DHT22;36893;52.520;13.450;2023-06-10T20:32:49;27.80;59.30
49821;DHT22;36893;52.520;13.450;2023-06-10T20:42:50;27.80;58.60
49821;DHT22;36893;52.520;13.450;2023-06-10T20:52:51;27.80;58.60
49821;DHT22;36893;52.520;13.450;2023-06-10T21:02:51;27.80;58.60
49821;DHT22;36893;52.520;13.450;2023-06-10T21:12:52;27.80;58.50
49821;DHT22;36893;52.520;13.450;2023-06-10T21:22:53;27.80;58.50
49821;DHT22;36893;52.520;13.450;2023-06-10T21:32:53;27.90;58.50
49821;DHT22;36893;52.520;13.450;2023-06-10T21:42:54;27.90;58.50
49821;DHT22;36893;52.520;13.450;2023-06-10T21:52:55;27.90;58.40
49821;DHT22;36893;52.520;13.450;2023-06-10T22:02:55;28.00;58.40
49821;DHT22;36893;52.520;13.450;2023-06-10T22:12:56;27.90;58.30
49821;DHT22;36893;52.520;13.450;2023-06-10T22:22:57;27.90;58.30
49821;DHT22;36893;52.520;13.450;2023-06-10T22:32:57;28.00;58.30
49821;DHT22;36893;52.520;13.450;2023-06-10T22:42:58;28.00;58.20
49821;DHT22;36893;52.520;13.450;2023-06-10T22:52:59;28.00;58.20
49821;DHT22;36893;52.520;13.450;2023-06-10T23:03:00;28.00;58.10
49821;DHT22;36893;52.520;13.450;2023-06-10T23:13:01;28.00;58.10
49821;DHT22;36893;52.520;13.450;2023-06-10T23:23:01;28.00;58.00
49821;DHT22;36893;52.520;13.450;2023-06-10T23:33:04;28.00;58.00
49821;DHT22;36893;52.520;13.450;2023-06-10T23:43:06;28.10;58.00
49821;DHT22;36893;52.520;13.450;2023-06-10T23:53:06;28.00;57.80
